sensor_id;sensor_type;location;lat;lon;timestamp;pressure;altitude;pressure_sealevel;temperature;humidity
21433;BME280;18592;49.708;10.900;2022-12-17T00:01:52;98953.91;;;-0.47;48.93
21433;BME280;18592;49.708;10.900;2022-12-17T00:04:13;98958.09;;;-0.53;49.58
21433;BME280;18592;49.708;10.900;2022-12-17T00:06:35;98958.63;;;-0.57;49.47
21433;BME280;18592;49.708;10.900;2022-12-17T00:08:59;98957.63;;;-0.65;49.03
21433;BME280;18592;49.708;10.900;2022-12-17T00:11:20;98964.34;;;-0.69;49.13
21433;BME280;18592;49.708;10.900;2022-12-17T00:13:40;98966.69;;;-0.74;48.77
21433;BME280;18592;49.708;10.900;2022-12-17T00:16:05;98971.88;;;-0.80;48.94
21433;BME280;18592;49.708;10.900;2022-12-17T00:18:25;98974.22;;;-0.85;49.27
21433;BME280;18592;49.708;10.900;2022-12-17T00:20:57;98990.13;;;-0.92;49.44
21433;BME280;18592;49.708;10.900;2022-12-17T00:23:17;98982.59;;;-0.96;49.23
21433;BME280;18592;49.708;10.900;2022-12-17T00:25:40;98986.78;;;-1.02;48.78
21433;BME280;18592;49.708;10.900;2022-12-17T00:28:00;98986.25;;;-1.05;48.66
21433;BME280;18592;49.708;10.900;2022-12-17T00:30:20;98990.28;;;-1.09;49.25
21433;BME280;18592;49.708;10.900;2022-12-17T00:32:41;98991.59;;;-1.13;49.08
21433;BME280;18592;49.708;10.900;2022-12-17T00:35:02;98990.28;;;-1.17;49.08
21433;BME280;18592;49.708;10.900;2022-12-17T00:37:22;98998.81;;;-1.22;48.97
21433;BME280;18592;49.708;10.900;2022-12-17T00:39:45;99004.78;;;-1.28;48.88
21433;BME280;18592;49.708;10.900;2022-12-17T00:42:05;99003.47;;;-1.32;48.77
21433;BME280;18592;49.708;10.900;2022-12-17T00:44:26;99010.78;;;-1.34;48.91
21433;BME280;18592;49.708;10.900;2022-12-17T00:46:46;99007.78;;;-1.39;48.48
21433;BME280;18592;49.708;10.900;2022-12-17T00:49:08;99006.97;;;-1.40;49.00
21433;BME280;18592;49.708;10.900;2022-12-17T00:51:28;99016.28;;;-1.44;49.02
21433;BME280;18592;49.708;10.900;2022-12-17T00:53:49;99011.13;;;-1.45;48.75
21433;BME280;18592;49.708;10.900;2022-12-17T00:56:10;99015.28;;;-1.51;48.78
21433;BME280;18592;49.708;10.900;2022-12-17T00:58:30;99018.28;;;-1.54;48.86
21433;BME280;18592;49.708;10.900;2022-12-17T01:00:57;99021.63;;;-1.60;48.61
21433;BME280;18592;49.708;10.900;2022-12-17T01:03:20;99029.09;;;-1.63;48.59
21433;BME280;18592;49.708;10.900;2022-12-17T01:05:41;99034.94;;;-1.68;48.72
21433;BME280;18592;49.708;10.900;2022-12-17T01:08:06;99031.75;;;-1.71;48.26
21433;BME280;18592;49.708;10.900;2022-12-17T01:10:27;99033.09;;;-1.75;48.61
21433;BME280;18592;49.708;10.900;2022-12-17T01:12:47;99030.06;;;-1.80;48.72
21433;BME280;18592;49.708;10.900;2022-12-17T01:15:07;99048.22;;;-1.84;48.31
21433;BME280;18592;49.708;10.900;2022-12-17T01:17:28;99039.88;;;-1.89;48.49
21433;BME280;18592;49.708;10.900;2022-12-17T01:19:49;99046.69;;;-1.95;48.43
21433;BME280;18592;49.708;10.900;2022-12-17T01:22:09;99056.03;;;-1.99;48.59
21433;BME280;18592;49.708;10.900;2022-12-17T01:24:32;99059.84;;;-2.01;48.39
21433;BME280;18592;49.708;10.900;2022-12-17T01:26:53;99061.00;;;-2.04;48.41
21433;BME280;18592;49.708;10.900;2022-12-17T01:29:13;99059.50;;;-2.06;48.49
21433;BME280;18592;49.708;10.900;2022-12-17T01:31:33;99065.31;;;-2.11;48.44
21433;BME280;18592;49.708;10.900;2022-12-17T01:33:53;99066.47;;;-2.13;48.49
21433;BME280;18592;49.708;10.900;2022-12-17T01:36:14;99071.13;;;-2.15;48.65
21433;BME280;18592;49.708;10.900;2022-12-17T01:38:34;99075.09;;;-2.19;48.44
21433;BME280;18592;49.708;10.900;2022-12-17T01:40:54;99073.75;;;-2.23;48.22
21433;BME280;18592;49.708;10.900;2022-12-17T01:43:33;99075.88;;;-2.27;48.20
21433;BME280;18592;49.708;10.900;2022-12-17T01:45:54;99088.72;;;-2.30;48.41
21433;BME280;18592;49.708;10.900;2022-12-17T01:48:15;99095.22;;;-2.33;48.29
21433;BME280;18592;49.708;10.900;2022-12-17T01:50:40;99091.34;;;-2.38;48.42
21433;BME280;18592;49.708;10.900;2022-12-17T01:53:03;99083.81;;;-2.43;48.40
21433;BME280;18592;49.708;10.900;2022-12-17T01:55:24;99089.56;;;-2.47;48.29
21433;BME280;18592;49.708;10.900;2022-12-17T01:57:45;99098.06;;;-2.52;48.26
21433;BME280;18592;49.708;10.900;2022-12-17T02:00:07;99094.88;;;-2.55;48.07
21433;BME280;18592;49.708;10.900;2022-12-17T02:02:32;99107.00;;;-2.61;48.38
21433;BME280;18592;49.708;10.900;2022-12-17T02:04:55;99103.97;;;-2.66;48.42
21433;BME280;18592;49.708;10.900;2022-12-17T02:07:28;99110.88;;;-2.73;48.15
21433;BME280;18592;49.708;10.900;2022-12-17T02:10:07;99110.66;;;-2.80;47.55
21433;BME280;18592;49.708;10.900;2022-12-17T02:12:39;99111.28;;;-2.86;47.91
21433;BME280;18592;49.708;10.900;2022-12-17T02:15:11;99114.56;;;-2.92;47.52
21433;BME280;18592;49.708;10.900;2022-12-17T02:17:41;99124.16;;;-2.99;48.07
21433;BME280;18592;49.708;10.900;2022-12-17T02:20:14;99115.78;;;-3.04;47.96
21433;BME280;18592;49.708;10.900;2022-12-17T02:23:04;99115.53;;;-3.10;47.72
21433;BME280;18592;49.708;10.900;2022-12-17T02:25:37;99120.47;;;-3.15;47.81
21433;BME280;18592;49.708;10.900;2022-12-17T02:28:00;99122.63;;;-3.19;47.99
21433;BME280;18592;49.708;10.900;2022-12-17T02:30:20;99129.22;;;-3.23;47.77
21433;BME280;18592;49.708;10.900;2022-12-17T02:32:47;99128.72;;;-3.27;48.26
21433;BME280;18592;49.708;10.900;2022-12-17T02:35:19;99123.81;;;-3.31;47.70
21433;BME280;18592;49.708;10.900;2022-12-17T02:37:46;99128.63;;;-3.35;47.84
21433;BME280;18592;49.708;10.900;2022-12-17T02:40:26;99137.88;;;-3.39;47.80
21433;BME280;18592;49.708;10.900;2022-12-17T02:42:47;99145.34;;;-3.42;48.04
21433;BME280;18592;49.708;10.900;2022-12-17T02:45:14;99142.97;;;-3.45;48.15
21433;BME280;18592;49.708;10.900;2022-12-17T02:47:35;99147.63;;;-3.47;48.25
21433;BME280;18592;49.708;10.900;2022-12-17T02:49:58;99146.22;;;-3.51;48.08
21433;BME280;18592;49.708;10.900;2022-12-17T02:52:19;99152.69;;;-3.54;48.06
21433;BME280;18592;49.708;10.900;2022-12-17T02:54:40;99158.31;;;-3.57;48.16
21433;BME280;18592;49.708;10.900;2022-12-17T02:57:01;99154.25;;;-3.61;48.33
21433;BME280;18592;49.708;10.900;2022-12-17T02:59:23;99158.91;;;-3.63;48.02
21433;BME280;18592;49.708;10.900;2022-12-17T03:01:48;99164.66;;;-3.67;47.89
21433;BME280;18592;49.708;10.900;2022-12-17T03:04:09;99162.28;;;-3.70;48.30
21433;BME280;18592;49.708;10.900;2022-12-17T03:06:29;99167.06;;;-3.74;47.91
21433;BME280;18592;49.708;10.900;2022-12-17T03:08:49;99172.53;;;-3.75;47.84
21433;BME280;18592;49.708;10.900;2022-12-17T03:11:10;99179.97;;;-3.79;48.05
21433;BME280;18592;49.708;10.900;2022-12-17T03:13:30;99193.44;;;-3.80;47.94
21433;BME280;18592;49.708;10.900;2022-12-17T03:15:51;99185.63;;;-3.82;48.07
21433;BME280;18592;49.708;10.900;2022-12-17T03:18:14;99184.22;;;-3.86;48.19
21433;BME280;18592;49.708;10.900;2022-12-17T03:20:37;99191.50;;;-3.88;47.97
21433;BME280;18592;49.708;10.900;2022-12-17T03:23:08;99193.47;;;-3.90;48.46
21433;BME280;18592;49.708;10.900;2022-12-17T03:25:29;99197.13;;;-3.91;48.17
21433;BME280;18592;49.708;10.900;2022-12-17T03:27:49;99194.91;;;-3.96;48.44
21433;BME280;18592;49.708;10.900;2022-12-17T03:30:10;99198.69;;;-3.98;47.87
21433;BME280;18592;49.708;10.900;2022-12-17T03:32:36;99205.13;;;-4.01;48.31
21433;BME280;18592;49.708;10.900;2022-12-17T03:34:58;99210.56;;;-4.02;48.04
21433;BME280;18592;49.708;10.900;2022-12-17T03:37:18;99214.53;;;-4.06;47.91
21433;BME280;18592;49.708;10.900;2022-12-17T03:39:38;99213.16;;;-4.10;48.20
21433;BME280;18592;49.708;10.900;2022-12-17T03:42:00;99214.38;;;-4.14;48.24
21433;BME280;18592;49.708;10.900;2022-12-17T03:44:20;99211.19;;;-4.18;47.70
21433;BME280;18592;49.708;10.900;2022-12-17T03:46:40;99211.47;;;-4.21;47.96
21433;BME280;18592;49.708;10.900;2022-12-17T03:49:01;99208.25;;;-4.24;47.81
21433;BME280;18592;49.708;10.900;2022-12-17T03:51:22;99211.34;;;-4.29;48.26
21433;BME280;18592;49.708;10.900;2022-12-17T03:53:44;99203.63;;;-4.32;48.25
21433;BME280;18592;49.708;10.900;2022-12-17T03:56:04;99212.03;;;-4.36;47.84
21433;BME280;18592;49.708;10.900;2022-12-17T03:58:25;99202.53;;;-4.39;47.97
21433;BME280;18592;49.708;10.900;2022-12-17T04:00:45;99210.78;;;-4.42;47.70
21433;BME280;18592;49.708;10.900;2022-12-17T04:03:12;99217.38;;;-4.46;48.09
21433;BME280;18592;49.708;10.900;2022-12-17T04:05:34;99219.47;;;-4.50;47.90
21433;BME280;18592;49.708;10.900;2022-12-17T04:07:54;99222.38;;;-4.53;48.08
21433;BME280;18592;49.708;10.900;2022-12-17T04:10:14;99225.47;;;-4.57;47.94
21433;BME280;18592;49.708;10.900;2022-12-17T04:12:35;99230.25;;;-4.61;47.92
21433;BME280;18592;49.708;10.900;2022-12-17T04:14:55;99232.50;;;-4.66;47.95
21433;BME280;18592;49.708;10.900;2022-12-17T04:17:15;99237.06;;;-4.68;47.93
21433;BME280;18592;49.708;10.900;2022-12-17T04:19:35;99240.03;;;-4.71;47.88
21433;BME280;18592;49.708;10.900;2022-12-17T04:21:58;99248.28;;;-4.74;48.04
21433;BME280;18592;49.708;10.900;2022-12-17T04:24:19;99238.06;;;-4.78;47.60
21433;BME280;18592;49.708;10.900;2022-12-17T04:26:39;99247.16;;;-4.81;47.78
21433;BME280;18592;49.708;10.900;2022-12-17T04:28:59;99249.25;;;-4.84;47.76
21433;BME280;18592;49.708;10.900;2022-12-17T04:31:20;99250.34;;;-4.87;47.94
21433;BME280;18592;49.708;10.900;2022-12-17T04:33:40;99247.97;;;-4.90;47.66
21433;BME280;18592;49.708;10.900;2022-12-17T04:36:03;99250.91;;;-4.93;47.81
21433;BME280;18592;49.708;10.900;2022-12-17T04:38:26;99254.81;;;-4.97;47.87
21433;BME280;18592;49.708;10.900;2022-12-17T04:40:59;99257.72;;;-5.00;47.77
21433;BME280;18592;49.708;10.900;2022-12-17T04:43:20;99267.66;;;-5.02;48.08
21433;BME280;18592;49.708;10.900;2022-12-17T04:45:42;99278.56;;;-5.05;47.89
21433;BME280;18592;49.708;10.900;2022-12-17T04:48:04;99271.84;;;-5.09;47.85
21433;BME280;18592;49.708;10.900;2022-12-17T04:50:25;99272.97;;;-5.11;47.94
21433;BME280;18592;49.708;10.900;2022-12-17T04:52:48;99274.06;;;-5.14;48.10
21433;BME280;18592;49.708;10.900;2022-12-17T04:55:08;99280.50;;;-5.17;48.06
21433;BME280;18592;49.708;10.900;2022-12-17T04:57:28;99279.91;;;-5.20;47.59
21433;BME280;18592;49.708;10.900;2022-12-17T04:59:49;99292.34;;;-5.21;48.17
21433;BME280;18592;49.708;10.900;2022-12-17T05:02:12;99288.03;;;-5.22;47.76
21433;BME280;18592;49.708;10.900;2022-12-17T05:04:32;99284.63;;;-5.24;47.89
21433;BME280;18592;49.708;10.900;2022-12-17T05:06:52;99285.75;;;-5.26;47.80
21433;BME280;18592;49.708;10.900;2022-12-17T05:09:13;99294.72;;;-5.27;47.76
21433;BME280;18592;49.708;10.900;2022-12-17T05:11:33;99293.00;;;-5.28;48.04
21433;BME280;18592;49.708;10.900;2022-12-17T05:13:53;99292.31;;;-5.30;48.19
21433;BME280;18592;49.708;10.900;2022-12-17T05:16:14;99296.94;;;-5.32;47.86
21433;BME280;18592;49.708;10.900;2022-12-17T05:18:34;99298.03;;;-5.35;47.90
21433;BME280;18592;49.708;10.900;2022-12-17T05:20:57;99306.00;;;-5.35;47.83
21433;BME280;18592;49.708;10.900;2022-12-17T05:23:17;99315.06;;;-5.37;47.83
21433;BME280;18592;49.708;10.900;2022-12-17T05:25:38;99317.03;;;-5.39;48.00
21433;BME280;18592;49.708;10.900;2022-12-17T05:27:58;99326.81;;;-5.40;48.16
21433;BME280;18592;49.708;10.900;2022-12-17T05:30:18;99332.38;;;-5.43;47.88
21433;BME280;18592;49.708;10.900;2022-12-17T05:32:38;99333.63;;;-5.47;47.97
21433;BME280;18592;49.708;10.900;2022-12-17T05:34:59;99339.03;;;-5.48;48.08
21433;BME280;18592;49.708;10.900;2022-12-17T05:37:20;99337.63;;;-5.52;47.78
21433;BME280;18592;49.708;10.900;2022-12-17T05:39:44;99340.41;;;-5.54;47.86
21433;BME280;18592;49.708;10.900;2022-12-17T05:42:12;99333.53;;;-5.56;47.75
21433;BME280;18592;49.708;10.900;2022-12-17T05:44:32;99332.84;;;-5.58;48.02
21433;BME280;18592;49.708;10.900;2022-12-17T05:46:52;99344.44;;;-5.59;47.67
21433;BME280;18592;49.708;10.900;2022-12-17T05:49:13;99346.50;;;-5.63;47.81
21433;BME280;18592;49.708;10.900;2022-12-17T05:51:33;99345.09;;;-5.67;47.52
21433;BME280;18592;49.708;10.900;2022-12-17T05:53:53;99349.66;;;-5.69;48.16
21433;BME280;18592;49.708;10.900;2022-12-17T05:56:13;99345.59;;;-5.73;47.62
21433;BME280;18592;49.708;10.900;2022-12-17T05:58:37;99357.31;;;-5.75;47.66
21433;BME280;18592;49.708;10.900;2022-12-17T06:00:59;99362.78;;;-5.77;47.65
21433;BME280;18592;49.708;10.900;2022-12-17T06:03:20;99359.53;;;-5.81;47.80
21433;BME280;18592;49.708;10.900;2022-12-17T06:05:41;99357.28;;;-5.85;47.91
21433;BME280;18592;49.708;10.900;2022-12-17T06:08:03;99368.16;;;-5.88;47.89
21433;BME280;18592;49.708;10.900;2022-12-17T06:10:24;99370.09;;;-5.90;47.87
21433;BME280;18592;49.708;10.900;2022-12-17T06:12:56;99378.31;;;-5.93;47.64
21433;BME280;18592;49.708;10.900;2022-12-17T06:15:17;99370.22;;;-5.92;47.93
21433;BME280;18592;49.708;10.900;2022-12-17T06:17:37;99380.72;;;-5.90;48.20
21433;BME280;18592;49.708;10.900;2022-12-17T06:19:57;99377.06;;;-5.89;48.06
21433;BME280;18592;49.708;10.900;2022-12-17T06:22:18;99375.41;;;-5.90;47.94
21433;BME280;18592;49.708;10.900;2022-12-17T06:24:38;99384.22;;;-5.90;47.84
21433;BME280;18592;49.708;10.900;2022-12-17T06:26:58;99379.88;;;-5.91;47.74
21433;BME280;18592;49.708;10.900;2022-12-17T06:29:21;99392.44;;;-5.93;47.83
21433;BME280;18592;49.708;10.900;2022-12-17T06:31:43;99401.34;;;-5.94;47.74
21433;BME280;18592;49.708;10.900;2022-12-17T06:34:06;99404.13;;;-5.95;47.63
21433;BME280;18592;49.708;10.900;2022-12-17T06:36:26;99410.53;;;-5.98;47.49
21433;BME280;18592;49.708;10.900;2022-12-17T06:38:46;99412.47;;;-6.00;47.67
21433;BME280;18592;49.708;10.900;2022-12-17T06:41:07;99414.41;;;-6.02;47.81
21433;BME280;18592;49.708;10.900;2022-12-17T06:43:27;99417.19;;;-6.03;47.75
21433;BME280;18592;49.708;10.900;2022-12-17T06:45:50;99426.09;;;-6.04;47.70
21433;BME280;18592;49.708;10.900;2022-12-17T06:48:11;99426.94;;;-6.04;48.04
21433;BME280;18592;49.708;10.900;2022-12-17T06:50:31;99426.00;;;-6.03;48.11
21433;BME280;18592;49.708;10.900;2022-12-17T06:52:59;99428.75;;;-6.04;47.63
21433;BME280;18592;49.708;10.900;2022-12-17T06:55:19;99423.44;;;-6.04;47.92
21433;BME280;18592;49.708;10.900;2022-12-17T06:57:39;99430.59;;;-6.05;48.08
21433;BME280;18592;49.708;10.900;2022-12-17T07:00:03;99432.25;;;-6.04;48.24
21433;BME280;18592;49.708;10.900;2022-12-17T07:02:23;99435.75;;;-6.03;48.03
21433;BME280;18592;49.708;10.900;2022-12-17T07:04:52;99437.56;;;-6.04;48.08
21433;BME280;18592;49.708;10.900;2022-12-17T07:07:16;99443.84;;;-6.05;47.58
21433;BME280;18592;49.708;10.900;2022-12-17T07:09:37;99447.31;;;-6.04;47.83
21433;BME280;18592;49.708;10.900;2022-12-17T07:11:57;99447.31;;;-6.04;47.52
21433;BME280;18592;49.708;10.900;2022-12-17T07:14:18;99460.72;;;-6.06;47.95
21433;BME280;18592;49.708;10.900;2022-12-17T07:16:38;99469.66;;;-6.07;47.74
21433;BME280;18592;49.708;10.900;2022-12-17T07:18:58;99475.09;;;-6.08;47.79
21433;BME280;18592;49.708;10.900;2022-12-17T07:21:24;99480.63;;;-6.11;47.77
21433;BME280;18592;49.708;10.900;2022-12-17T07:23:44;99490.41;;;-6.12;47.81
21433;BME280;18592;49.708;10.900;2022-12-17T07:26:04;99480.78;;;-6.13;47.70
21433;BME280;18592;49.708;10.900;2022-12-17T07:28:24;99489.69;;;-6.14;47.64
21433;BME280;18592;49.708;10.900;2022-12-17T07:30:45;99487.16;;;-6.15;47.72
21433;BME280;18592;49.708;10.900;2022-12-17T07:33:06;99494.41;;;-6.17;47.60
21433;BME280;18592;49.708;10.900;2022-12-17T07:35:26;99499.72;;;-6.17;47.78
21433;BME280;18592;49.708;10.900;2022-12-17T07:37:47;99501.16;;;-6.13;48.19
21433;BME280;18592;49.708;10.900;2022-12-17T07:40:10;99501.00;;;-6.12;47.83
21433;BME280;18592;49.708;10.900;2022-12-17T07:42:31;99513.06;;;-6.08;47.71
21433;BME280;18592;49.708;10.900;2022-12-17T07:44:51;99506.91;;;-6.08;47.82
21433;BME280;18592;49.708;10.900;2022-12-17T07:47:11;99514.75;;;-6.07;47.94
21433;BME280;18592;49.708;10.900;2022-12-17T07:49:34;99513.06;;;-6.08;47.80
21433;BME280;18592;49.708;10.900;2022-12-17T07:51:55;99512.22;;;-6.08;47.89
21433;BME280;18592;49.708;10.900;2022-12-17T07:54:16;99517.41;;;-6.07;48.12
21433;BME280;18592;49.708;10.900;2022-12-17T07:56:36;99521.88;;;-6.07;48.09
21433;BME280;18592;49.708;10.900;2022-12-17T07:58:56;99528.75;;;-6.05;48.00
21433;BME280;18592;49.708;10.900;2022-12-17T08:01:17;99525.13;;;-6.04;47.85
21433;BME280;18592;49.708;10.900;2022-12-17T08:03:43;99529.47;;;-6.03;47.97
21433;BME280;18592;49.708;10.900;2022-12-17T08:06:03;99533.78;;;-6.02;48.13
21433;BME280;18592;49.708;10.900;2022-12-17T08:08:24;99530.91;;;-5.99;47.88
21433;BME280;18592;49.708;10.900;2022-12-17T08:10:48;99533.69;;;-6.00;48.03
21433;BME280;18592;49.708;10.900;2022-12-17T08:13:14;99537.91;;;-5.98;47.90
21433;BME280;18592;49.708;10.900;2022-12-17T08:15:36;99542.22;;;-5.97;48.03
21433;BME280;18592;49.708;10.900;2022-12-17T08:18:03;99543.69;;;-5.93;48.30
21433;BME280;18592;49.708;10.900;2022-12-17T08:20:27;99547.91;;;-5.90;48.37
21433;BME280;18592;49.708;10.900;2022-12-17T08:22:47;99551.41;;;-5.90;48.06
21433;BME280;18592;49.708;10.900;2022-12-17T08:25:08;99551.13;;;-5.87;48.49
21433;BME280;18592;49.708;10.900;2022-12-17T08:27:29;99555.22;;;-5.83;48.33
21433;BME280;18592;49.708;10.900;2022-12-17T08:29:49;99557.34;;;-5.77;48.51
21433;BME280;18592;49.708;10.900;2022-12-17T08:32:10;99558.91;;;-5.74;48.33
21433;BME280;18592;49.708;10.900;2022-12-17T08:34:33;99565.56;;;-5.68;48.70
21433;BME280;18592;49.708;10.900;2022-12-17T08:36:53;99562.28;;;-5.61;48.51
21433;BME280;18592;49.708;10.900;2022-12-17T08:39:13;99559.25;;;-5.56;48.75
21433;BME280;18592;49.708;10.900;2022-12-17T08:41:34;99566.72;;;-5.50;48.73
21433;BME280;18592;49.708;10.900;2022-12-17T08:43:58;99572.50;;;-5.45;49.03
21433;BME280;18592;49.708;10.900;2022-12-17T08:46:19;99569.47;;;-5.41;48.87
21433;BME280;18592;49.708;10.900;2022-12-17T08:48:41;99564.75;;;-5.37;49.08
21433;BME280;18592;49.708;10.900;2022-12-17T08:51:01;99564.38;;;-5.33;49.00
21433;BME280;18592;49.708;10.900;2022-12-17T08:53:21;99564.97;;;-5.29;48.89
21433;BME280;18592;49.708;10.900;2022-12-17T08:55:42;99572.56;;;-5.25;48.74
21433;BME280;18592;49.708;10.900;2022-12-17T08:58:02;99573.13;;;-5.21;48.87
21433;BME280;18592;49.708;10.900;2022-12-17T09:00:23;99569.38;;;-5.19;48.80
21433;BME280;18592;49.708;10.900;2022-12-17T09:02:46;99582.28;;;-5.14;49.13
21433;BME280;18592;49.708;10.900;2022-12-17T09:05:07;99576.72;;;-5.11;48.79
21433;BME280;18592;49.708;10.900;2022-12-17T09:07:28;99580.94;;;-5.08;48.85
21433;BME280;18592;49.708;10.900;2022-12-17T09:09:48;99582.38;;;-5.04;49.24
21433;BME280;18592;49.708;10.900;2022-12-17T09:12:09;99588.28;;;-5.01;49.11
21433;BME280;18592;49.708;10.900;2022-12-17T09:14:29;99590.56;;;-4.96;49.02
21433;BME280;18592;49.708;10.900;2022-12-17T09:16:50;99592.13;;;-4.94;49.22
21433;BME280;18592;49.708;10.900;2022-12-17T09:19:11;99599.56;;;-4.88;49.23
21433;BME280;18592;49.708;10.900;2022-12-17T09:21:31;99602.97;;;-4.86;49.31
21433;BME280;18592;49.708;10.900;2022-12-17T09:24:04;99597.25;;;-4.81;49.32
21433;BME280;18592;49.708;10.900;2022-12-17T09:26:24;99603.97;;;-4.77;49.31
21433;BME280;18592;49.708;10.900;2022-12-17T09:28:44;99605.44;;;-4.73;49.07
21433;BME280;18592;49.708;10.900;2022-12-17T09:31:04;99617.63;;;-4.71;49.42
21433;BME280;18592;49.708;10.900;2022-12-17T09:33:25;99609.25;;;-4.66;49.65
21433;BME280;18592;49.708;10.900;2022-12-17T09:35:45;99593.75;;;-4.61;49.35
21433;BME280;18592;49.708;10.900;2022-12-17T09:38:11;99606.50;;;-4.55;49.49
21433;BME280;18592;49.708;10.900;2022-12-17T09:40:31;99612.41;;;-4.52;49.68
21433;BME280;18592;49.708;10.900;2022-12-17T09:42:57;99612.03;;;-4.47;49.67
21433;BME280;18592;49.708;10.900;2022-12-17T09:48:06;99610.84;;;-4.33;49.53
21433;BME280;18592;49.708;10.900;2022-12-17T09:50:33;99613.97;;;-4.28;49.42
21433;BME280;18592;49.708;10.900;2022-12-17T09:52:53;99617.78;;;-4.21;49.50
21433;BME280;18592;49.708;10.900;2022-12-17T09:55:22;99619.09;;;-4.16;49.83
21433;BME280;18592;49.708;10.900;2022-12-17T09:57:45;99619.38;;;-4.09;50.08
21433;BME280;18592;49.708;10.900;2022-12-17T10:00:21;99621.53;;;-4.03;50.20
21433;BME280;18592;49.708;10.900;2022-12-17T10:02:41;99619.16;;;-3.97;49.98
21433;BME280;18592;49.708;10.900;2022-12-17T10:05:04;99611.63;;;-3.92;50.33
21433;BME280;18592;49.708;10.900;2022-12-17T10:07:34;99617.13;;;-3.83;49.89
21433;BME280;18592;49.708;10.900;2022-12-17T10:10:00;99615.75;;;-3.78;50.08
21433;BME280;18592;49.708;10.900;2022-12-17T10:12:26;99613.38;;;-3.71;50.60
21433;BME280;18592;49.708;10.900;2022-12-17T10:14:46;99616.34;;;-3.65;50.33
21433;BME280;18592;49.708;10.900;2022-12-17T10:17:20;99606.13;;;-3.60;50.15
21433;BME280;18592;49.708;10.900;2022-12-17T10:19:49;99613.44;;;-3.52;50.48
21433;BME280;18592;49.708;10.900;2022-12-17T10:22:13;99619.06;;;-3.46;50.39
21433;BME280;18592;49.708;10.900;2022-12-17T10:24:43;99628.19;;;-3.39;50.30
21433;BME280;18592;49.708;10.900;2022-12-17T10:27:08;99619.66;;;-3.33;50.52
21433;BME280;18592;49.708;10.900;2022-12-17T10:29:30;99620.78;;;-3.26;50.44
21433;BME280;18592;49.708;10.900;2022-12-17T10:31:54;99623.63;;;-3.17;50.48
21433;BME280;18592;49.708;10.900;2022-12-17T10:34:21;99616.88;;;-3.12;50.42
21433;BME280;18592;49.708;10.900;2022-12-17T10:36:47;99616.31;;;-3.06;50.63
21433;BME280;18592;49.708;10.900;2022-12-17T10:39:21;99629.94;;;-2.99;50.57
21433;BME280;18592;49.708;10.900;2022-12-17T10:41:42;99625.47;;;-2.89;50.50
21433;BME280;18592;49.708;10.900;2022-12-17T10:44:27;99631.22;;;-2.84;50.91
21433;BME280;18592;49.708;10.900;2022-12-17T10:46:55;99629.69;;;-2.77;50.60
21433;BME280;18592;49.708;10.900;2022-12-17T10:49:23;99628.13;;;-2.70;50.76
21433;BME280;18592;49.708;10.900;2022-12-17T10:51:49;99625.75;;;-2.64;50.83
21433;BME280;18592;49.708;10.900;2022-12-17T10:54:29;99636.56;;;-2.55;50.81
21433;BME280;18592;49.708;10.900;2022-12-17T10:56:52;99629.78;;;-2.50;50.93
21433;BME280;18592;49.708;10.900;2022-12-17T10:59:36;99637.94;;;-2.42;50.90
21433;BME280;18592;49.708;10.900;2022-12-17T11:01:58;99630.22;;;-2.35;50.59
21433;BME280;18592;49.708;10.900;2022-12-17T11:06:49;99631.56;;;-2.22;50.80
21433;BME280;18592;49.708;10.900;2022-12-17T11:09:33;99631.13;;;-2.17;50.84
21433;BME280;18592;49.708;10.900;2022-12-17T11:11:55;99628.59;;;-2.09;51.10
21433;BME280;18592;49.708;10.900;2022-12-17T11:14:16;99633.22;;;-2.02;51.28
21433;BME280;18592;49.708;10.900;2022-12-17T11:16:47;99629.97;;;-1.96;51.05
21433;BME280;18592;49.708;10.900;2022-12-17T11:21:51;99635.84;;;-1.82;51.12
21433;BME280;18592;49.708;10.900;2022-12-17T11:24:22;99641.72;;;-1.79;51.12
21433;BME280;18592;49.708;10.900;2022-12-17T11:26:49;99631.97;;;-1.70;51.19
21433;BME280;18592;49.708;10.900;2022-12-17T11:29:12;99631.53;;;-1.66;51.05
21433;BME280;18592;49.708;10.900;2022-12-17T11:31:53;99635.16;;;-1.57;51.05
21433;BME280;18592;49.708;10.900;2022-12-17T11:36:58;99623.00;;;-1.42;50.91
21433;BME280;18592;49.708;10.900;2022-12-17T11:39:31;99625.75;;;-1.34;51.24
21433;BME280;18592;49.708;10.900;2022-12-17T11:42:23;99621.63;;;-1.29;51.21
21433;BME280;18592;49.708;10.900;2022-12-17T11:45:02;99619.06;;;-1.20;51.42
21433;BME280;18592;49.708;10.900;2022-12-17T11:50:25;99622.50;;;-1.10;51.48
21433;BME280;18592;49.708;10.900;2022-12-17T11:53:01;99619.25;;;-1.04;51.08
21433;BME280;18592;49.708;10.900;2022-12-17T11:55:55;99616.78;;;-0.98;51.54
21433;BME280;18592;49.708;10.900;2022-12-17T11:58:27;99618.88;;;-0.92;51.70
21433;BME280;18592;49.708;10.900;2022-12-17T12:01:08;99611.22;;;-0.87;51.37
21433;BME280;18592;49.708;10.900;2022-12-17T12:03:54;99619.34;;;-0.79;51.41
21433;BME280;18592;49.708;10.900;2022-12-17T12:09:12;99620.31;;;-0.62;51.29
21433;BME280;18592;49.708;10.900;2022-12-17T12:11:47;99617.53;;;-0.52;50.94
21433;BME280;18592;49.708;10.900;2022-12-17T12:14:25;99621.06;;;-0.52;51.73
21433;BME280;18592;49.708;10.900;2022-12-17T12:30:35;99622.53;;;-0.14;51.64
21433;BME280;18592;49.708;10.900;2022-12-17T12:35:46;99625.47;;;0.00;51.16
21433;BME280;18592;49.708;10.900;2022-12-17T12:38:15;99622.16;;;0.07;51.05
21433;BME280;18592;49.708;10.900;2022-12-17T12:40:52;99615.81;;;0.08;51.60
21433;BME280;18592;49.708;10.900;2022-12-17T12:43:22;99620.69;;;0.12;50.71
21433;BME280;18592;49.708;10.900;2022-12-17T12:46:06;99622.88;;;0.17;51.61
21433;BME280;18592;49.708;10.900;2022-12-17T12:48:41;99627.78;;;0.21;51.20
21433;BME280;18592;49.708;10.900;2022-12-17T12:51:25;99628.13;;;0.26;50.75
21433;BME280;18592;49.708;10.900;2022-12-17T12:54:00;99633.19;;;0.29;50.67
21433;BME280;18592;49.708;10.900;2022-12-17T12:56:32;99630.84;;;0.34;51.20
21433;BME280;18592;49.708;10.900;2022-12-17T12:58:53;99629.88;;;0.43;51.39
21433;BME280;18592;49.708;10.900;2022-12-17T13:01:15;99629.88;;;0.43;50.67
21433;BME280;18592;49.708;10.900;2022-12-17T13:06:02;99630.78;;;0.52;51.55
21433;BME280;18592;49.708;10.900;2022-12-17T13:08:21;99632.28;;;0.54;51.36